sensor_id;sensor_type;location;lat;lon;timestamp;pressure;altitude;pressure_sealevel;temperature;humidity
40872;BME280;26591;43.264;26.940;2023-03-03T00:00:50;99296.00;;;6.13;75.31
40872;BME280;26591;43.264;26.940;2023-03-03T00:03:22;99301.75;;;6.28;75.04
40872;BME280;26591;43.264;26.940;2023-03-03T00:05:48;99294.78;;;6.48;74.77
40872;BME280;26591;43.264;26.940;2023-03-03T00:08:14;99289.78;;;5.92;75.63
40872;BME280;26591;43.264;26.940;2023-03-03T00:10:40;99292.03;;;5.76;76.45
40872;BME280;26591;43.264;26.940;2023-03-03T00:13:13;99291.59;;;6.13;75.83
40872;BME280;26591;43.264;26.940;2023-03-03T00:15:39;99286.56;;;6.31;75.87
40872;BME280;26591;43.264;26.940;2023-03-03T00:18:17;99290.78;;;6.53;74.52
40872;BME280;26591;43.264;26.940;2023-03-03T00:20:56;99284.28;;;6.57;74.18
40872;BME280;26591;43.264;26.940;2023-03-03T00:23:35;99278.22;;;6.67;73.70
40872;BME280;26591;43.264;26.940;2023-03-03T00:26:21;99279.22;;;6.85;72.87
40872;BME280;26591;43.264;26.940;2023-03-03T00:28:48;99275.75;;;6.95;73.00
40872;BME280;26591;43.264;26.940;2023-03-03T00:31:20;99271.34;;;6.85;72.81
40872;BME280;26591;43.264;26.940;2023-03-03T00:33:50;99264.13;;;6.78;72.62
40872;BME280;26591;43.264;26.940;2023-03-03T00:36:36;99266.06;;;6.76;72.37
40872;BME280;26591;43.264;26.940;2023-03-03T00:39:30;99265.16;;;6.46;73.46
40872;BME280;26591;43.264;26.940;2023-03-03T00:41:58;99259.06;;;6.45;73.95
40872;BME280;26591;43.264;26.940;2023-03-03T00:47:32;99253.81;;;6.55;73.55
40872;BME280;26591;43.264;26.940;2023-03-03T00:52:37;99252.78;;;6.26;74.09
40872;BME280;26591;43.264;26.940;2023-03-03T00:55:04;99251.72;;;6.08;75.48
40872;BME280;26591;43.264;26.940;2023-03-03T00:57:30;99249.97;;;6.18;75.64
40872;BME280;26591;43.264;26.940;2023-03-03T00:59:55;99243.19;;;6.16;74.82
40872;BME280;26591;43.264;26.940;2023-03-03T01:02:21;99245.13;;;6.14;75.97
40872;BME280;26591;43.264;26.940;2023-03-03T01:04:51;99239.63;;;6.26;74.53
40872;BME280;26591;43.264;26.940;2023-03-03T01:07:18;99236.72;;;6.20;75.68
40872;BME280;26591;43.264;26.940;2023-03-03T01:09:46;99232.28;;;6.20;75.41
40872;BME280;26591;43.264;26.940;2023-03-03T01:12:24;99224.94;;;6.14;75.35
40872;BME280;26591;43.264;26.940;2023-03-03T01:14:50;99228.00;;;6.29;75.38
40872;BME280;26591;43.264;26.940;2023-03-03T01:17:17;99225.66;;;6.26;75.62
40872;BME280;26591;43.264;26.940;2023-03-03T01:19:42;99219.19;;;6.40;74.56
40872;BME280;26591;43.264;26.940;2023-03-03T01:22:08;99220.00;;;5.69;75.84
40872;BME280;26591;43.264;26.940;2023-03-03T01:24:33;99216.97;;;5.73;76.91
40872;BME280;26591;43.264;26.940;2023-03-03T01:26:59;99220.75;;;5.80;76.63
40872;BME280;26591;43.264;26.940;2023-03-03T01:29:24;99223.72;;;5.97;76.95
40872;BME280;26591;43.264;26.940;2023-03-03T01:31:50;99224.25;;;6.12;76.40
40872;BME280;26591;43.264;26.940;2023-03-03T01:34:15;99209.50;;;6.31;75.03
40872;BME280;26591;43.264;26.940;2023-03-03T01:36:41;99207.03;;;6.49;75.04
40872;BME280;26591;43.264;26.940;2023-03-03T01:39:06;99199.56;;;6.64;74.49
40872;BME280;26591;43.264;26.940;2023-03-03T01:41:31;99206.38;;;6.66;73.75
40872;BME280;26591;43.264;26.940;2023-03-03T01:43:59;99208.19;;;6.76;73.37
40872;BME280;26591;43.264;26.940;2023-03-03T01:47:01;99207.38;;;6.75;72.58
40872;BME280;26591;43.264;26.940;2023-03-03T01:49:26;99201.94;;;6.77;73.01
40872;BME280;26591;43.264;26.940;2023-03-03T01:51:56;99199.44;;;6.55;73.26
40872;BME280;26591;43.264;26.940;2023-03-03T01:54:49;99198.50;;;6.76;72.72
40872;BME280;26591;43.264;26.940;2023-03-03T01:57:22;99199.03;;;6.70;72.57
40872;BME280;26591;43.264;26.940;2023-03-03T01:59:51;99197.25;;;6.90;72.55
40872;BME280;26591;43.264;26.940;2023-03-03T02:02:18;99195.03;;;6.85;72.09
40872;BME280;26591;43.264;26.940;2023-03-03T02:04:44;99196.97;;;6.83;72.66
40872;BME280;26591;43.264;26.940;2023-03-03T02:07:15;99187.84;;;6.78;72.31
40872;BME280;26591;43.264;26.940;2023-03-03T02:12:25;99192.34;;;6.36;73.64
40872;BME280;26591;43.264;26.940;2023-03-03T02:14:53;99184.25;;;6.08;74.73
40872;BME280;26591;43.264;26.940;2023-03-03T02:17:18;99184.97;;;6.20;75.24
40872;BME280;26591;43.264;26.940;2023-03-03T02:22:10;99182.38;;;5.99;75.52
40872;BME280;26591;43.264;26.940;2023-03-03T02:24:50;99178.56;;;6.03;76.25
40872;BME280;26591;43.264;26.940;2023-03-03T02:27:17;99187.91;;;5.96;75.67
40872;BME280;26591;43.264;26.940;2023-03-03T02:29:44;99180.50;;;6.01;76.51
40872;BME280;26591;43.264;26.940;2023-03-03T02:32:09;99179.91;;;5.98;76.28
40872;BME280;26591;43.264;26.940;2023-03-03T02:34:49;99170.31;;;5.56;77.95
40872;BME280;26591;43.264;26.940;2023-03-03T02:37:15;99174.16;;;5.83;77.81
40872;BME280;26591;43.264;26.940;2023-03-03T02:39:42;99180.06;;;5.75;78.08
40872;BME280;26591;43.264;26.940;2023-03-03T02:42:12;99175.06;;;5.93;76.99
40872;BME280;26591;43.264;26.940;2023-03-03T02:44:39;99176.72;;;5.63;77.63
40872;BME280;26591;43.264;26.940;2023-03-03T02:47:04;99174.31;;;5.29;79.39
40872;BME280;26591;43.264;26.940;2023-03-03T02:49:33;99176.06;;;5.71;78.95
40872;BME280;26591;43.264;26.940;2023-03-03T02:52:00;99184.19;;;5.68;78.57
40872;BME280;26591;43.264;26.940;2023-03-03T02:54:28;99180.38;;;5.08;80.11
40872;BME280;26591;43.264;26.940;2023-03-03T02:56:55;99188.56;;;4.94;81.11
40872;BME280;26591;43.264;26.940;2023-03-03T02:59:21;99186.66;;;5.17;81.84
40872;BME280;26591;43.264;26.940;2023-03-03T03:01:46;99187.09;;;4.80;82.37
40872;BME280;26591;43.264;26.940;2023-03-03T03:04:18;99187.81;;;5.03;82.16
40872;BME280;26591;43.264;26.940;2023-03-03T03:06:44;99190.78;;;5.10;82.25
40872;BME280;26591;43.264;26.940;2023-03-03T03:09:10;99196.03;;;5.31;81.75
40872;BME280;26591;43.264;26.940;2023-03-03T03:11:37;99185.66;;;5.50;80.47
40872;BME280;26591;43.264;26.940;2023-03-03T03:14:04;99188.00;;;5.32;80.69
40872;BME280;26591;43.264;26.940;2023-03-03T03:16:30;99191.81;;;5.18;81.11
40872;BME280;26591;43.264;26.940;2023-03-03T03:18:56;99179.97;;;5.24;81.23
40872;BME280;26591;43.264;26.940;2023-03-03T03:21:22;99178.16;;;5.25;81.30
40872;BME280;26591;43.264;26.940;2023-03-03T03:23:47;99179.81;;;5.26;80.45
40872;BME280;26591;43.264;26.940;2023-03-03T03:26:13;99178.13;;;5.46;80.52
40872;BME280;26591;43.264;26.940;2023-03-03T03:28:38;99167.59;;;5.36;80.17
40872;BME280;26591;43.264;26.940;2023-03-03T03:31:05;99171.44;;;5.32;80.59
40872;BME280;26591;43.264;26.940;2023-03-03T03:33:31;99157.63;;;5.30;80.13
40872;BME280;26591;43.264;26.940;2023-03-03T03:35:57;99158.19;;;5.33;80.78
40872;BME280;26591;43.264;26.940;2023-03-03T03:38:23;99155.78;;;5.21;80.60
40872;BME280;26591;43.264;26.940;2023-03-03T03:40:51;99163.03;;;5.17;81.52
40872;BME280;26591;43.264;26.940;2023-03-03T03:43:17;99156.91;;;5.28;81.57
40872;BME280;26591;43.264;26.940;2023-03-03T03:45:44;99145.91;;;5.13;80.76
40872;BME280;26591;43.264;26.940;2023-03-03T03:48:10;99149.50;;;5.12;80.93
40872;BME280;26591;43.264;26.940;2023-03-03T03:50:36;99157.94;;;5.37;81.43
40872;BME280;26591;43.264;26.940;2023-03-03T03:53:02;99150.16;;;5.56;80.73
40872;BME280;26591;43.264;26.940;2023-03-03T03:55:27;99142.59;;;5.63;80.47
40872;BME280;26591;43.264;26.940;2023-03-03T03:57:55;99140.38;;;5.68;79.64
40872;BME280;26591;43.264;26.940;2023-03-03T04:00:20;99135.41;;;5.65;79.81
40872;BME280;26591;43.264;26.940;2023-03-03T04:02:46;99138.84;;;5.65;79.32
40872;BME280;26591;43.264;26.940;2023-03-03T04:05:11;99132.75;;;5.55;78.78
40872;BME280;26591;43.264;26.940;2023-03-03T04:07:38;99130.72;;;5.69;78.66
40872;BME280;26591;43.264;26.940;2023-03-03T04:10:04;99125.28;;;5.60;78.88
40872;BME280;26591;43.264;26.940;2023-03-03T04:12:30;99135.13;;;5.58;79.10
40872;BME280;26591;43.264;26.940;2023-03-03T04:15:04;99133.75;;;5.64;78.68
40872;BME280;26591;43.264;26.940;2023-03-03T04:17:30;99129.63;;;5.71;79.13
40872;BME280;26591;43.264;26.940;2023-03-03T04:19:55;99124.75;;;5.35;79.57
40872;BME280;26591;43.264;26.940;2023-03-03T04:22:21;99128.88;;;5.59;79.26
40872;BME280;26591;43.264;26.940;2023-03-03T04:24:46;99127.47;;;5.86;78.80
40872;BME280;26591;43.264;26.940;2023-03-03T04:27:14;99125.97;;;5.93;78.22
40872;BME280;26591;43.264;26.940;2023-03-03T04:29:40;99130.25;;;5.94;77.71
40872;BME280;26591;43.264;26.940;2023-03-03T04:32:06;99129.28;;;5.95;77.76
40872;BME280;26591;43.264;26.940;2023-03-03T04:34:32;99129.53;;;5.92;77.67
40872;BME280;26591;43.264;26.940;2023-03-03T04:36:58;99124.44;;;5.91;77.89
40872;BME280;26591;43.264;26.940;2023-03-03T04:39:23;99127.00;;;5.71;77.94
40872;BME280;26591;43.264;26.940;2023-03-03T04:41:49;99124.69;;;5.88;77.66
40872;BME280;26591;43.264;26.940;2023-03-03T04:44:14;99128.59;;;5.93;77.37
40872;BME280;26591;43.264;26.940;2023-03-03T04:46:40;99123.47;;;5.51;78.38
40872;BME280;26591;43.264;26.940;2023-03-03T04:49:06;99128.34;;;5.34;79.42
40872;BME280;26591;43.264;26.940;2023-03-03T04:51:33;99118.47;;;5.48;79.59
40872;BME280;26591;43.264;26.940;2023-03-03T04:53:58;99116.84;;;5.04;80.74
40872;BME280;26591;43.264;26.940;2023-03-03T04:56:24;99119.41;;;5.16;80.47
40872;BME280;26591;43.264;26.940;2023-03-03T04:58:49;99121.06;;;4.96;81.61
40872;BME280;26591;43.264;26.940;2023-03-03T05:01:15;99120.00;;;5.19;80.78
40872;BME280;26591;43.264;26.940;2023-03-03T05:03:40;99125.28;;;4.87;82.26
40872;BME280;26591;43.264;26.940;2023-03-03T05:06:06;99135.81;;;5.39;82.01
40872;BME280;26591;43.264;26.940;2023-03-03T05:08:32;99132.63;;;5.35;80.93
40872;BME280;26591;43.264;26.940;2023-03-03T05:10:57;99138.91;;;5.44;80.89
40872;BME280;26591;43.264;26.940;2023-03-03T05:13:24;99134.41;;;5.04;82.01
40872;BME280;26591;43.264;26.940;2023-03-03T05:15:52;99145.31;;;4.88;82.79
40872;BME280;26591;43.264;26.940;2023-03-03T05:18:20;99150.56;;;5.09;81.68
40872;BME280;26591;43.264;26.940;2023-03-03T05:20:46;99141.75;;;5.10;82.11
40872;BME280;26591;43.264;26.940;2023-03-03T05:23:12;99146.63;;;5.36;81.69
40872;BME280;26591;43.264;26.940;2023-03-03T05:25:39;99150.22;;;5.14;82.01
40872;BME280;26591;43.264;26.940;2023-03-03T05:28:06;99144.00;;;5.46;80.79
40872;BME280;26591;43.264;26.940;2023-03-03T05:30:31;99156.97;;;5.38;80.71
40872;BME280;26591;43.264;26.940;2023-03-03T05:32:57;99152.69;;;5.37;80.99
40872;BME280;26591;43.264;26.940;2023-03-03T05:35:24;99151.47;;;5.41;80.31
40872;BME280;26591;43.264;26.940;2023-03-03T05:37:49;99148.47;;;5.03;81.05
40872;BME280;26591;43.264;26.940;2023-03-03T05:40:15;99156.66;;;5.31;80.86
40872;BME280;26591;43.264;26.940;2023-03-03T05:42:40;99154.28;;;5.28;81.62
40872;BME280;26591;43.264;26.940;2023-03-03T05:45:06;99151.44;;;5.62;80.99
40872;BME280;26591;43.264;26.940;2023-03-03T05:47:32;99164.16;;;5.67;79.71
40872;BME280;26591;43.264;26.940;2023-03-03T05:49:57;99156.81;;;5.39;79.27
40872;BME280;26591;43.264;26.940;2023-03-03T05:52:23;99152.44;;;5.71;79.66
40872;BME280;26591;43.264;26.940;2023-03-03T05:54:49;99149.84;;;5.80;79.13
40872;BME280;26591;43.264;26.940;2023-03-03T05:57:14;99159.25;;;5.52;79.01
40872;BME280;26591;43.264;26.940;2023-03-03T05:59:40;99153.97;;;5.73;79.26
40872;BME280;26591;43.264;26.940;2023-03-03T06:02:06;99151.19;;;5.75;78.69
40872;BME280;26591;43.264;26.940;2023-03-03T06:04:32;99154.38;;;6.00;78.44
40872;BME280;26591;43.264;26.940;2023-03-03T06:06:57;99152.72;;;6.08;78.12
40872;BME280;26591;43.264;26.940;2023-03-03T06:09:23;99146.09;;;6.14;77.39
40872;BME280;26591;43.264;26.940;2023-03-03T06:11:48;99140.19;;;6.32;76.89
40872;BME280;26591;43.264;26.940;2023-03-03T06:14:14;99142.53;;;6.45;76.74
40872;BME280;26591;43.264;26.940;2023-03-03T06:16:46;99140.34;;;6.50;76.22
40872;BME280;26591;43.264;26.940;2023-03-03T06:19:12;99137.97;;;6.37;75.89
40872;BME280;26591;43.264;26.940;2023-03-03T06:21:38;99145.44;;;6.32;76.21
40872;BME280;26591;43.264;26.940;2023-03-03T06:24:04;99138.06;;;6.16;76.51
40872;BME280;26591;43.264;26.940;2023-03-03T06:26:30;99147.78;;;6.35;76.00
40872;BME280;26591;43.264;26.940;2023-03-03T06:28:56;99142.81;;;6.41;75.86
40872;BME280;26591;43.264;26.940;2023-03-03T06:31:22;99150.56;;;6.33;75.97
40872;BME280;26591;43.264;26.940;2023-03-03T06:33:47;99150.97;;;6.29;75.81
40872;BME280;26591;43.264;26.940;2023-03-03T06:36:13;99161.41;;;6.60;76.32
40872;BME280;26591;43.264;26.940;2023-03-03T06:38:39;99148.94;;;6.62;75.16
40872;BME280;26591;43.264;26.940;2023-03-03T06:41:06;99154.44;;;6.88;74.99
40872;BME280;26591;43.264;26.940;2023-03-03T06:43:33;99152.53;;;6.80;74.92
40872;BME280;26591;43.264;26.940;2023-03-03T06:45:59;99158.19;;;6.85;74.94
40872;BME280;26591;43.264;26.940;2023-03-03T06:48:24;99159.03;;;6.96;74.32
40872;BME280;26591;43.264;26.940;2023-03-03T06:50:50;99161.94;;;6.93;74.40
40872;BME280;26591;43.264;26.940;2023-03-03T06:53:17;99157.38;;;6.55;74.13
40872;BME280;26591;43.264;26.940;2023-03-03T06:55:44;99148.22;;;6.89;74.52
40872;BME280;26591;43.264;26.940;2023-03-03T06:58:15;99156.66;;;6.53;74.63
40872;BME280;26591;43.264;26.940;2023-03-03T07:00:42;99155.16;;;6.80;74.19
40872;BME280;26591;43.264;26.940;2023-03-03T07:03:34;99151.69;;;6.50;75.52
40872;BME280;26591;43.264;26.940;2023-03-03T07:06:07;99151.53;;;6.71;75.22
40872;BME280;26591;43.264;26.940;2023-03-03T07:08:33;99150.31;;;6.95;74.31
40872;BME280;26591;43.264;26.940;2023-03-03T07:11:06;99153.47;;;7.18;74.27
40872;BME280;26591;43.264;26.940;2023-03-03T07:13:32;99159.59;;;8.40;82.72
40872;BME280;26591;43.264;26.940;2023-03-03T07:16:02;99146.16;;;9.24;77.14
40872;BME280;26591;43.264;26.940;2023-03-03T07:19:00;99148.53;;;9.97;68.97
40872;BME280;26591;43.264;26.940;2023-03-03T07:21:33;99148.53;;;9.36;65.74
40872;BME280;26591;43.264;26.940;2023-03-03T07:24:17;99148.88;;;8.52;67.24
40872;BME280;26591;43.264;26.940;2023-03-03T07:26:45;99141.34;;;8.47;68.16
40872;BME280;26591;43.264;26.940;2023-03-03T07:29:25;99141.06;;;8.32;68.41
40872;BME280;26591;43.264;26.940;2023-03-03T07:31:52;99138.81;;;7.82;69.63
40872;BME280;26591;43.264;26.940;2023-03-03T07:36:48;99137.19;;;8.08;68.82
40872;BME280;26591;43.264;26.940;2023-03-03T07:41:51;99136.72;;;7.57;70.58
40872;BME280;26591;43.264;26.940;2023-03-03T07:44:25;99136.38;;;7.70;70.69
40872;BME280;26591;43.264;26.940;2023-03-03T07:46:54;99138.09;;;7.61;71.21
40872;BME280;26591;43.264;26.940;2023-03-03T07:49:36;99133.75;;;7.70;70.29
40872;BME280;26591;43.264;26.940;2023-03-03T07:54:44;99127.84;;;7.58;69.94
40872;BME280;26591;43.264;26.940;2023-03-03T07:59:37;99121.13;;;7.74;69.89
40872;BME280;26591;43.264;26.940;2023-03-03T08:05:30;99114.38;;;7.89;70.22
40872;BME280;26591;43.264;26.940;2023-03-03T08:08:33;99112.00;;;7.68;70.66
40872;BME280;26591;43.264;26.940;2023-03-03T08:11:01;99119.06;;;7.30;71.42
40872;BME280;26591;43.264;26.940;2023-03-03T08:13:37;99125.28;;;7.39;72.24
40872;BME280;26591;43.264;26.940;2023-03-03T08:18:51;99123.44;;;6.92;72.06
40872;BME280;26591;43.264;26.940;2023-03-03T08:21:24;99122.19;;;6.96;72.63
40872;BME280;26591;43.264;26.940;2023-03-03T08:23:51;99116.75;;;7.17;72.44
40872;BME280;26591;43.264;26.940;2023-03-03T08:26:21;99122.00;;;7.64;71.24
40872;BME280;26591;43.264;26.940;2023-03-03T08:28:48;99126.25;;;7.75;70.70
40872;BME280;26591;43.264;26.940;2023-03-03T08:31:13;99121.56;;;7.97;70.01
40872;BME280;26591;43.264;26.940;2023-03-03T08:33:39;99124.19;;;7.97;69.53
40872;BME280;26591;43.264;26.940;2023-03-03T08:36:06;99120.69;;;7.78;69.81
40872;BME280;26591;43.264;26.940;2023-03-03T08:38:32;99116.34;;;7.87;69.13
40872;BME280;26591;43.264;26.940;2023-03-03T08:40:57;99116.22;;;8.07;68.65
40872;BME280;26591;43.264;26.940;2023-03-03T08:43:23;99110.91;;;8.17;68.56
40872;BME280;26591;43.264;26.940;2023-03-03T08:45:51;99108.50;;;7.77;69.47
40872;BME280;26591;43.264;26.940;2023-03-03T08:48:17;99101.72;;;6.80;71.68
40872;BME280;26591;43.264;26.940;2023-03-03T08:50:43;99108.56;;;7.20;71.96
40872;BME280;26591;43.264;26.940;2023-03-03T08:53:11;99106.47;;;7.24;71.98
40872;BME280;26591;43.264;26.940;2023-03-03T08:55:38;99106.25;;;7.83;70.53
40872;BME280;26591;43.264;26.940;2023-03-03T08:58:03;99106.16;;;8.38;69.29
40872;BME280;26591;43.264;26.940;2023-03-03T09:00:29;99098.88;;;8.32;69.25
40872;BME280;26591;43.264;26.940;2023-03-03T09:02:55;99107.59;;;8.33;68.65
40872;BME280;26591;43.264;26.940;2023-03-03T09:05:21;99103.47;;;8.30;67.92
40872;BME280;26591;43.264;26.940;2023-03-03T09:07:48;99093.97;;;7.73;69.55
40872;BME280;26591;43.264;26.940;2023-03-03T09:10:18;99092.63;;;7.59;70.78
40872;BME280;26591;43.264;26.940;2023-03-03T09:12:46;99092.81;;;7.76;69.90
40872;BME280;26591;43.264;26.940;2023-03-03T09:15:22;99092.56;;;7.97;68.85
40872;BME280;26591;43.264;26.940;2023-03-03T09:17:48;99092.63;;;8.33;70.22
40872;BME280;26591;43.264;26.940;2023-03-03T09:20:21;99090.81;;;8.70;69.02
40872;BME280;26591;43.264;26.940;2023-03-03T09:22:48;99098.53;;;8.90;69.64
40872;BME280;26591;43.264;26.940;2023-03-03T09:25:30;99086.59;;;9.04;69.07
40872;BME280;26591;43.264;26.940;2023-03-03T09:27:57;99084.47;;;8.08;68.63
40872;BME280;26591;43.264;26.940;2023-03-03T09:30:26;99080.75;;;7.83;70.06
40872;BME280;26591;43.264;26.940;2023-03-03T09:32:56;99077.66;;;8.06;70.24
40872;BME280;26591;43.264;26.940;2023-03-03T09:35:37;99076.19;;;8.39;69.85
40872;BME280;26591;43.264;26.940;2023-03-03T09:52:02;99068.38;;;8.30;68.63
40872;BME280;26591;43.264;26.940;2023-03-03T10:08:12;99058.47;;;8.68;67.47
40872;BME280;26591;43.264;26.940;2023-03-03T10:16:27;99053.44;;;9.01;66.02
40872;BME280;26591;43.264;26.940;2023-03-03T10:19:02;99039.84;;;8.69;66.88
40872;BME280;26591;43.264;26.940;2023-03-03T10:24:28;99039.47;;;8.46;66.75
40872;BME280;26591;43.264;26.940;2023-03-03T10:27:35;99034.69;;;8.86;64.73
40872;BME280;26591;43.264;26.940;2023-03-03T10:30:16;99028.63;;;9.20;62.94
40872;BME280;26591;43.264;26.940;2023-03-03T10:32:58;99028.97;;;9.68;62.95
40872;BME280;26591;43.264;26.940;2023-03-03T10:38:25;99009.38;;;9.96;60.81
40872;BME280;26591;43.264;26.940;2023-03-03T10:40:57;99008.41;;;10.30;58.40
40872;BME280;26591;43.264;26.940;2023-03-03T10:49:32;98990.22;;;10.35;56.09
40872;BME280;26591;43.264;26.940;2023-03-03T10:56:07;98977.06;;;10.43;56.42
40872;BME280;26591;43.264;26.940;2023-03-03T10:58:58;98979.28;;;11.36;56.77
40872;BME280;26591;43.264;26.940;2023-03-03T11:04:19;98966.25;;;12.12;52.89
40872;BME280;26591;43.264;26.940;2023-03-03T11:14:53;98960.03;;;11.73;48.72
40872;BME280;26591;43.264;26.940;2023-03-03T11:20:49;98950.53;;;11.56;49.20
40872;BME280;26591;43.264;26.940;2023-03-03T11:32:14;98934.78;;;12.77;43.06
40872;BME280;26591;43.264;26.940;2023-03-03T11:38:13;98924.91;;;11.71;48.22
40872;BME280;26591;43.264;26.940;2023-03-03T11:45:53;98921.28;;;11.41;47.72
40872;BME280;26591;43.264;26.940;2023-03-03T11:51:02;98915.63;;;11.44;48.85
40872;BME280;26591;43.264;26.940;2023-03-03T11:54:02;98914.00;;;11.89;47.71
40872;BME280;26591;43.264;26.940;2023-03-03T11:56:40;98901.75;;;11.65;48.85
40872;BME280;26591;43.264;26.940;2023-03-03T12:01:55;98898.22;;;11.18;48.53
40872;BME280;26591;43.264;26.940;2023-03-03T12:04:30;98902.81;;;11.56;46.29
40872;BME280;26591;43.264;26.940;2023-03-03T12:09:41;98894.78;;;12.79;45.62
40872;BME280;26591;43.264;26.940;2023-03-03T12:12:51;98887.59;;;12.94;46.09
40872;BME280;26591;43.264;26.940;2023-03-03T12:15:54;98898.75;;;12.15;47.24
40872;BME280;26591;43.264;26.940;2023-03-03T12:18:41;98892.56;;;11.76;48.39
40872;BME280;26591;43.264;26.940;2023-03-03T12:29:30;98887.09;;;10.43;50.65
40872;BME280;26591;43.264;26.940;2023-03-03T12:35:50;98893.13;;;10.68;50.83
40872;BME280;26591;43.264;26.940;2023-03-03T12:40:45;98889.19;;;11.36;50.88
40872;BME280;26591;43.264;26.940;2023-03-03T12:48:43;98895.16;;;12.08;48.75
40872;BME280;26591;43.264;26.940;2023-03-03T12:56:52;98891.53;;;12.24;49.13
40872;BME280;26591;43.264;26.940;2023-03-03T12:59:49;98879.63;;;12.04;49.68
40872;BME280;26591;43.264;26.940;2023-03-03T13:16:05;98879.47;;;10.23;55.60
40872;BME280;26591;43.264;26.940;2023-03-03T13:21:28;98875.81;;;10.49;55.35
40872;BME280;26591;43.264;26.940;2023-03-03T13:26:37;98873.25;;;10.00;57.29
40872;BME280;26591;43.264;26.940;2023-03-03T13:31:39;98870.72;;;10.48;55.85
40872;BME280;26591;43.264;26.940;2023-03-03T13:34:07;98871.19;;;10.51;56.21
40872;BME280;26591;43.264;26.940;2023-03-03T13:36:48;98872.34;;;10.49;56.63
40872;BME280;26591;43.264;26.940;2023-03-03T13:39:26;98874.16;;;10.57;56.54
40872;BME280;26591;43.264;26.940;2023-03-03T13:42:01;98873.13;;;10.66;56.76
40872;BME280;26591;43.264;26.940;2023-03-03T13:44:37;98879.78;;;10.37;57.36
40872;BME280;26591;43.264;26.940;2023-03-03T13:52:10;98874.06;;;9.84;59.76
40872;BME280;26591;43.264;26.940;2023-03-03T13:54:55;98871.41;;;9.59;60.03
40872;BME280;26591;43.264;26.940;2023-03-03T14:03:17;98874.22;;;9.66;60.51
40872;BME280;26591;43.264;26.940;2023-03-03T14:06:41;98865.63;;;9.72;60.63
40872;BME280;26591;43.264;26.940;2023-03-03T14:14:23;98873.00;;;9.35;61.82
40872;BME280;26591;43.264;26.940;2023-03-03T14:17:03;98867.09;;;9.41;62.33
40872;BME280;26591;43.264;26.940;2023-03-03T14:19:39;98862.66;;;9.67;62.53
40872;BME280;26591;43.264;26.940;2023-03-03T14:22:24;98863.34;;;9.69;62.86
40872;BME280;26591;43.264;26.940;2023-03-03T14:25:06;98865.09;;;9.35;62.63
40872;BME280;26591;43.264;26.940;2023-03-03T14:27:53;98859.81;;;9.19;63.58
40872;BME280;26591;43.264;26.940;2023-03-03T14:30:42;98859.03;;;9.76;62.80
40872;BME280;26591;43.264;26.940;2023-03-03T14:35:39;98867.28;;;9.98;61.31
40872;BME280;26591;43.264;26.940;2023-03-03T14:38:11;98862.81;;;10.06;61.67
40872;BME280;26591;43.264;26.940;2023-03-03T14:40:40;98869.25;;;10.12;61.89
40872;BME280;26591;43.264;26.940;2023-03-03T14:43:26;98868.13;;;10.06;62.24
40872;BME280;26591;43.264;26.940;2023-03-03T14:46:32;98876.03;;;9.98;62.70
40872;BME280;26591;43.264;26.940;2023-03-03T14:49:05;98868.78;;;9.92;62.77
40872;BME280;26591;43.264;26.940;2023-03-03T14:51:43;98867.13;;;9.83;63.13
40872;BME280;26591;43.264;26.940;2023-03-03T14:57:06;98877.72;;;9.91;63.49
40872;BME280;26591;43.264;26.940;2023-03-03T14:59:32;98877.19;;;10.04;63.11
40872;BME280;26591;43.264;26.940;2023-03-03T15:04:42;98884.47;;;10.10;63.62
40872;BME280;26591;43.264;26.940;2023-03-03T15:09:51;98873.88;;;10.18;63.95
40872;BME280;26591;43.264;26.940;2023-03-03T15:12:24;98873.03;;;10.10;64.08
40872;BME280;26591;43.264;26.940;2023-03-03T15:17:43;98883.13;;;10.39;65.90
40872;BME280;26591;43.264;26.940;2023-03-03T15:20:44;98875.22;;;9.98;65.10
40872;BME280;26591;43.264;26.940;2023-03-03T15:34:38;98879.63;;;9.39;67.18
40872;BME280;26591;43.264;26.940;2023-03-03T15:45:14;98901.47;;;9.66;68.65
40872;BME280;26591;43.264;26.940;2023-03-03T15:53:51;98898.75;;;9.25;73.27
40872;BME280;26591;43.264;26.940;2023-03-03T16:02:48;98915.50;;;10.58;74.98
40872;BME280;26591;43.264;26.940;2023-03-03T16:04:48;98923.97;;;10.45;69.47
40872;BME280;26591;43.264;26.940;2023-03-03T16:17:58;98931.22;;;10.26;67.14
40872;BME280;26591;43.264;26.940;2023-03-03T16:26:11;98931.06;;;9.70;68.30
40872;BME280;26591;43.264;26.940;2023-03-03T16:28:42;98930.22;;;9.69;68.78
40872;BME280;26591;43.264;26.940;2023-03-03T16:31:19;98942.72;;;9.51;69.62
40872;BME280;26591;43.264;26.940;2023-03-03T16:33:51;98944.69;;;9.40;69.79
40872;BME280;26591;43.264;26.940;2023-03-03T16:39:05;98944.06;;;9.55;70.93
40872;BME280;26591;43.264;26.940;2023-03-03T16:41:43;98953.47;;;9.57;70.72
40872;BME280;26591;43.264;26.940;2023-03-03T16:46:44;98962.06;;;9.51;72.83
40872;BME280;26591;43.264;26.940;2023-03-03T16:52:28;98968.19;;;9.60;71.80
40872;BME280;26591;43.264;26.940;2023-03-03T16:55:20;98961.06;;;9.60;70.85
40872;BME280;26591;43.264;26.940;2023-03-03T17:00:23;98956.91;;;9.41;70.47
40872;BME280;26591;43.264;26.940;2023-03-03T17:03:11;98966.66;;;9.41;70.62
40872;BME280;26591;43.264;26.940;2023-03-03T17:08:28;98969.84;;;9.61;72.06
40872;BME280;26591;43.264;26.940;2023-03-03T17:11:43;98970.50;;;9.63;71.46
40872;BME280;26591;43.264;26.940;2023-03-03T17:19:22;98974.75;;;9.48;72.05
40872;BME280;26591;43.264;26.940;2023-03-03T17:25:02;98980.94;;;9.81;70.67
40872;BME280;26591;43.264;26.940;2023-03-03T17:27:45;98984.13;;;10.01;70.66
40872;BME280;26591;43.264;26.940;2023-03-03T17:33:08;98979.81;;;9.92;68.42
40872;BME280;26591;43.264;26.940;2023-03-03T17:35:53;98983.94;;;10.19;69.57
40872;BME280;26591;43.264;26.940;2023-03-03T17:46:53;98980.81;;;9.91;68.26
40872;BME280;26591;43.264;26.940;2023-03-03T17:49:41;98991.84;;;9.70;68.22
40872;BME280;26591;43.264;26.940;2023-03-03T17:55:24;98985.66;;;9.44;70.36